createdAt,value
2022-12-28T00:00:16.481Z,3.37
2022-12-28T00:02:46.116Z,3.50
2022-12-28T00:05:17.775Z,3.00
2022-12-28T00:07:47.812Z,3.40
2022-12-28T00:10:17.613Z,3.30
2022-12-28T00:12:49.126Z,4.03
2022-12-28T00:15:18.781Z,3.90
2022-12-28T00:17:48.531Z,3.60
2022-12-28T00:20:18.048Z,3.22
2022-12-28T00:22:47.757Z,3.27
2022-12-28T00:25:17.374Z,3.47
2022-12-28T00:27:47.150Z,3.40
2022-12-28T00:30:16.679Z,3.50
2022-12-28T00:32:46.108Z,3.55
2022-12-28T00:35:15.978Z,2.45
2022-12-28T00:37:45.795Z,3.20
2022-12-28T00:40:22.031Z,3.40
2022-12-28T00:42:46.990Z,3.53
2022-12-28T00:45:16.727Z,3.67
2022-12-28T00:47:46.587Z,3.50
2022-12-28T00:50:16.078Z,3.35
2022-12-28T00:52:45.821Z,3.37
2022-12-28T00:55:15.762Z,3.80
2022-12-28T00:57:45.880Z,3.62
2022-12-28T01:00:16.464Z,3.50
2022-12-28T01:02:46.345Z,3.57
2022-12-28T01:05:15.761Z,3.97
2022-12-28T01:07:45.626Z,3.87
2022-12-28T01:10:15.232Z,4.30
2022-12-28T01:12:45.061Z,4.13
2022-12-28T01:15:15.734Z,3.90
2022-12-28T01:17:45.471Z,3.70
2022-12-28T01:20:15.058Z,3.90
2022-12-28T01:22:44.772Z,4.00
2022-12-28T01:25:15.874Z,3.83
2022-12-28T01:27:45.622Z,4.40
2022-12-28T01:30:15.951Z,3.40
2022-12-28T01:32:45.839Z,3.40
2022-12-28T01:35:15.641Z,3.58
2022-12-28T01:37:45.766Z,3.80
2022-12-28T01:40:16.376Z,3.60
2022-12-28T01:42:46.168Z,5.57
2022-12-28T01:45:18.853Z,4.20
2022-12-28T01:47:51.718Z,4.00
2022-12-28T01:50:24.197Z,4.77
2022-12-28T01:52:59.965Z,4.83
2022-12-28T01:55:32.318Z,3.87
2022-12-28T01:58:05.098Z,3.97
2022-12-28T02:00:36.470Z,3.60
2022-12-28T02:03:12.499Z,3.23
2022-12-28T02:05:45.497Z,4.08
2022-12-28T02:08:21.116Z,3.40
2022-12-28T02:10:52.830Z,3.53
2022-12-28T02:13:24.599Z,3.80
2022-12-28T02:15:54.347Z,3.57
2022-12-28T02:18:28.302Z,3.10
2022-12-28T02:21:13.067Z,3.70
2022-12-28T02:23:51.769Z,3.77
2022-12-28T02:26:50.849Z,4.00
2022-12-28T02:29:23.593Z,3.70
2022-12-28T02:31:59.690Z,3.17
2022-12-28T02:34:35.167Z,3.67
2022-12-28T02:37:10.173Z,3.47
2022-12-28T02:39:43.251Z,4.30
2022-12-28T02:42:13.812Z,3.55
2022-12-28T02:45:00.876Z,3.77
2022-12-28T02:47:48.539Z,3.80
2022-12-28T02:50:19.479Z,4.47
2022-12-28T02:52:54.947Z,3.50
2022-12-28T02:56:03.278Z,4.15
2022-12-28T02:58:44.743Z,3.70
2022-12-28T03:01:21.080Z,3.70
2022-12-28T03:04:03.473Z,3.80
2022-12-28T03:07:02.792Z,4.17
2022-12-28T03:09:44.121Z,4.35
2022-12-28T03:12:19.534Z,4.13
2022-12-28T03:14:54.426Z,4.60
2022-12-28T03:17:43.944Z,4.30
2022-12-28T03:20:38.243Z,4.50
2022-12-28T03:23:27.894Z,4.57
2022-12-28T03:26:18.874Z,4.83
2022-12-28T03:29:07.843Z,4.97
2022-12-28T03:31:39.668Z,5.13
2022-12-28T03:34:11.773Z,4.75
2022-12-28T03:36:57.573Z,5.25
2022-12-28T03:39:53.112Z,5.00
2022-12-28T03:42:46.859Z,5.03
2022-12-28T03:45:46.688Z,5.45
2022-12-28T03:48:04.593Z,5.60
2022-12-28T03:50:41.475Z,5.13
2022-12-28T03:53:11.799Z,5.05
2022-12-28T03:55:43.254Z,4.27
2022-12-28T03:58:13.414Z,5.63
2022-12-28T04:00:43.955Z,5.17
2022-12-28T04:03:14.005Z,5.00
2022-12-28T04:05:44.796Z,4.80
2022-12-28T04:08:14.756Z,5.40
2022-12-28T04:10:44.597Z,4.37
2022-12-28T04:13:14.589Z,4.70
2022-12-28T04:16:01.993Z,5.17
2022-12-28T04:18:34.269Z,4.80
2022-12-28T04:21:04.085Z,4.90
2022-12-28T04:23:34.254Z,5.17
2022-12-28T04:26:20.538Z,4.37
2022-12-28T04:28:52.074Z,4.90
2022-12-28T04:31:35.326Z,5.00
2022-12-28T04:34:08.187Z,5.33
2022-12-28T04:36:42.922Z,5.95
2022-12-28T04:39:16.875Z,5.27
2022-12-28T04:41:46.702Z,5.20
2022-12-28T04:44:16.204Z,5.80
2022-12-28T04:46:45.992Z,5.63
2022-12-28T04:49:15.790Z,4.90
2022-12-28T04:51:45.506Z,4.80
2022-12-28T04:54:15.523Z,5.47
2022-12-28T04:56:45.569Z,5.55
2022-12-28T04:59:15.680Z,5.45
2022-12-28T05:01:45.579Z,4.93
2022-12-28T05:04:15.199Z,5.43
2022-12-28T05:06:45.002Z,4.77
2022-12-28T05:09:14.845Z,5.20
2022-12-28T05:11:44.569Z,5.47
2022-12-28T05:14:14.736Z,5.08
2022-12-28T05:16:45.328Z,5.33
2022-12-28T05:19:15.345Z,5.27
2022-12-28T05:21:47.496Z,4.90
2022-12-28T05:24:17.103Z,5.50
2022-12-28T05:26:46.999Z,5.27
2022-12-28T05:29:16.740Z,4.70
2022-12-28T05:31:47.141Z,5.75
2022-12-28T05:34:16.876Z,4.83
2022-12-28T05:36:46.687Z,4.73
2022-12-28T05:39:16.460Z,4.30
2022-12-28T05:41:46.520Z,5.37
2022-12-28T05:44:16.206Z,4.30
2022-12-28T05:46:46.143Z,4.97
2022-12-28T05:49:15.920Z,4.47
2022-12-28T05:51:45.654Z,4.70
2022-12-28T05:54:15.178Z,4.40
2022-12-28T05:56:44.906Z,4.57
2022-12-28T05:59:14.622Z,4.97
2022-12-28T06:01:45.613Z,4.70
2022-12-28T06:04:20.261Z,4.40
2022-12-28T06:06:50.726Z,4.60
2022-12-28T06:09:21.035Z,4.10
2022-12-28T06:11:51.751Z,4.00
2022-12-28T06:14:21.572Z,4.30
2022-12-28T06:16:51.629Z,3.93
2022-12-28T06:19:21.149Z,4.30
2022-12-28T06:21:50.877Z,3.77
2022-12-28T06:24:20.690Z,3.92
2022-12-28T06:26:51.300Z,4.50
2022-12-28T06:29:21.053Z,4.03
2022-12-28T06:31:51.387Z,4.10
2022-12-28T06:34:21.124Z,4.00
2022-12-28T06:36:52.701Z,4.40
2022-12-28T06:39:22.425Z,3.97
2022-12-28T06:41:52.149Z,3.60
2022-12-28T06:44:21.878Z,3.90
2022-12-28T06:46:51.911Z,3.80
2022-12-28T06:49:21.664Z,3.40
2022-12-28T06:51:51.419Z,3.50
2022-12-28T06:54:20.923Z,3.50
2022-12-28T06:56:50.681Z,3.57
2022-12-28T06:59:20.167Z,3.60
2022-12-28T07:01:50.074Z,3.07
2022-12-28T07:04:19.904Z,3.45
2022-12-28T07:06:49.660Z,3.30
2022-12-28T07:09:19.733Z,3.30
2022-12-28T07:11:51.348Z,3.30
2022-12-28T07:14:21.031Z,3.00
2022-12-28T07:16:50.798Z,3.37
2022-12-28T07:19:20.550Z,3.00
2022-12-28T07:21:51.204Z,2.90
2022-12-28T07:24:20.888Z,3.67
2022-12-28T07:26:50.662Z,3.10
2022-12-28T07:29:20.177Z,3.40
2022-12-28T07:31:50.221Z,3.40
2022-12-28T07:34:20.007Z,2.87
2022-12-28T07:36:50.224Z,3.73
2022-12-28T07:39:20.036Z,3.30
2022-12-28T07:41:49.797Z,3.40
2022-12-28T07:44:20.899Z,3.30
2022-12-28T07:46:50.679Z,3.37
2022-12-28T07:49:20.415Z,3.53
2022-12-28T07:51:49.847Z,3.65
2022-12-28T07:54:19.586Z,3.60
2022-12-28T07:56:49.705Z,3.22
2022-12-28T07:59:19.166Z,3.80
2022-12-28T08:01:53.341Z,3.33
2022-12-28T08:04:22.827Z,3.50
2022-12-28T08:06:52.555Z,3.37
2022-12-28T08:09:22.726Z,3.65
2022-12-28T08:11:52.451Z,3.70
2022-12-28T08:14:21.918Z,3.90
2022-12-28T08:16:51.740Z,3.27
2022-12-28T08:19:21.481Z,3.20
2022-12-28T08:21:51.271Z,3.10
2022-12-28T08:24:21.231Z,3.10
2022-12-28T08:26:51.380Z,2.80
2022-12-28T08:29:23.250Z,3.07
2022-12-28T08:31:53.012Z,3.23
2022-12-28T08:34:24.917Z,2.90
2022-12-28T08:36:56.582Z,2.67
2022-12-28T08:39:26.594Z,3.20
2022-12-28T08:41:57.246Z,2.97
2022-12-28T08:44:27.058Z,2.92
2022-12-28T08:46:58.107Z,2.73
2022-12-28T08:49:27.997Z,2.67
2022-12-28T08:51:57.805Z,2.83
2022-12-28T08:54:27.551Z,2.92
2022-12-28T08:56:56.970Z,2.70
2022-12-28T08:59:26.769Z,2.80
2022-12-28T09:01:56.837Z,3.70
2022-12-28T09:04:26.494Z,3.35
2022-12-28T09:06:56.308Z,4.07
2022-12-28T09:09:26.065Z,3.87
2022-12-28T09:11:55.781Z,3.70
2022-12-28T09:14:25.592Z,3.65
2022-12-28T09:16:55.759Z,3.70
2022-12-28T09:19:25.761Z,4.43
2022-12-28T09:21:55.545Z,4.07
2022-12-28T09:24:25.368Z,3.97
2022-12-28T09:26:55.425Z,4.07
2022-12-28T09:29:25.187Z,3.70
2022-12-28T09:31:54.651Z,4.25
2022-12-28T09:34:39.898Z,4.08
2022-12-28T09:36:55.858Z,4.70
2022-12-28T09:39:25.446Z,3.80
2022-12-28T09:41:58.291Z,4.00
2022-12-28T09:44:48.943Z,3.47
2022-12-28T09:47:36.893Z,4.03
2022-12-28T09:50:17.161Z,3.73
2022-12-28T09:53:09.347Z,3.47
2022-12-28T09:55:42.348Z,4.17
2022-12-28T09:58:16.077Z,3.75
2022-12-28T10:00:50.891Z,3.40
2022-12-28T10:03:39.977Z,3.50
2022-12-28T10:06:16.606Z,3.86
2022-12-28T10:08:49.384Z,3.27
2022-12-28T10:11:23.501Z,3.60
2022-12-28T10:13:59.225Z,3.70
2022-12-28T10:16:34.842Z,3.67
2022-12-28T10:19:07.003Z,3.77
2022-12-28T10:21:37.177Z,3.33
2022-12-28T10:26:43.364Z,3.60
2022-12-28T10:29:16.136Z,2.87
2022-12-28T10:31:47.471Z,3.23
2022-12-28T10:34:22.811Z,3.20
2022-12-28T10:36:53.579Z,3.10
2022-12-28T10:39:31.941Z,2.83
2022-12-28T10:42:02.958Z,2.57
2022-12-28T10:44:39.734Z,2.50
2022-12-28T10:47:14.352Z,2.40
2022-12-28T10:52:23.904Z,2.37
2022-12-28T10:55:07.867Z,2.40
2022-12-28T10:57:31.575Z,2.00
2022-12-28T11:00:21.514Z,1.97
2022-12-28T11:02:51.468Z,1.77
2022-12-28T11:05:24.368Z,1.90
2022-12-28T11:08:07.471Z,2.00
2022-12-28T11:10:37.544Z,1.90
2022-12-28T11:13:10.667Z,2.10
2022-12-28T11:15:41.073Z,1.83
2022-12-28T11:18:19.338Z,1.90
2022-12-28T11:20:51.590Z,1.50
2022-12-28T11:23:24.439Z,2.40
2022-12-28T11:25:54.538Z,1.70
2022-12-28T11:28:24.920Z,1.55
2022-12-28T11:30:54.991Z,1.87
2022-12-28T11:33:46.046Z,2.17
2022-12-28T11:36:24.596Z,1.97
2022-12-28T11:38:56.312Z,1.80
2022-12-28T11:41:33.851Z,2.07
2022-12-28T11:44:04.896Z,2.02
2022-12-28T11:46:39.796Z,2.30
2022-12-28T11:49:27.590Z,2.30
2022-12-28T11:52:30.394Z,2.20
2022-12-28T11:55:02.724Z,2.40
2022-12-28T11:57:44.183Z,2.33
2022-12-28T12:00:25.875Z,2.25
2022-12-28T12:03:00.662Z,2.60
2022-12-28T12:05:41.955Z,2.43
2022-12-28T12:08:17.570Z,2.10
2022-12-28T12:10:48.648Z,2.45
2022-12-28T12:13:30.734Z,2.33
2022-12-28T12:16:05.201Z,2.37
2022-12-28T12:18:38.009Z,2.40
2022-12-28T12:21:15.559Z,2.20
2022-12-28T12:23:52.829Z,2.20
2022-12-28T12:26:34.104Z,3.17
2022-12-28T12:29:09.695Z,2.37
2022-12-28T12:31:42.491Z,2.57
2022-12-28T12:34:19.958Z,2.22
2022-12-28T12:37:17.561Z,2.33
2022-12-28T12:39:53.330Z,2.10
2022-12-28T12:42:38.051Z,2.25
2022-12-28T12:45:30.675Z,2.15
2022-12-28T12:51:34.648Z,2.35
2022-12-28T12:54:25.974Z,2.07
2022-12-28T12:57:10.275Z,2.53
2022-12-28T13:00:00.927Z,2.57
2022-12-28T13:02:33.804Z,2.23
2022-12-28T13:05:05.438Z,2.55
2022-12-28T13:07:35.817Z,2.30
2022-12-28T13:10:10.836Z,2.50
2022-12-28T13:12:42.553Z,2.47
2022-12-28T13:15:19.601Z,2.80
2022-12-28T13:20:39.217Z,2.40
2022-12-28T13:23:12.030Z,2.83
2022-12-28T13:25:44.919Z,2.20
2022-12-28T13:28:23.614Z,2.80
2022-12-28T13:30:58.636Z,2.83
2022-12-28T13:33:30.155Z,2.83
2022-12-28T13:36:14.899Z,2.80
2022-12-28T13:38:46.549Z,3.10
2022-12-28T13:41:27.413Z,2.50
2022-12-28T13:44:14.772Z,2.40
2022-12-28T13:46:46.837Z,3.00
2022-12-28T13:49:18.110Z,3.10
2022-12-28T13:51:53.531Z,2.50
2022-12-28T13:54:23.928Z,2.08
2022-12-28T13:57:14.757Z,2.23
2022-12-28T13:59:29.120Z,2.05
2022-12-28T14:01:59.297Z,2.20
2022-12-28T14:07:01.620Z,2.17
2022-12-28T14:09:31.525Z,2.50
2022-12-28T14:12:01.027Z,2.25
2022-12-28T14:14:30.968Z,2.40
2022-12-28T14:17:03.514Z,2.37
2022-12-28T14:19:34.296Z,2.37
2022-12-28T14:22:07.886Z,2.40
2022-12-28T14:24:35.688Z,2.53
2022-12-28T14:27:05.522Z,2.50
2022-12-28T14:29:36.371Z,2.20
2022-12-28T14:32:10.882Z,1.77
2022-12-28T14:34:40.791Z,1.90
2022-12-28T14:37:22.478Z,2.70
2022-12-28T14:39:52.230Z,2.30
2022-12-28T14:42:27.154Z,2.17
2022-12-28T14:44:58.993Z,2.10
2022-12-28T14:47:45.721Z,2.40
2022-12-28T14:50:21.274Z,2.10
2022-12-28T14:52:53.343Z,2.27
2022-12-28T14:55:28.920Z,2.50
2022-12-28T14:58:01.737Z,2.10
2022-12-28T15:00:37.041Z,2.37
2022-12-28T15:03:22.260Z,2.40
2022-12-28T15:05:54.499Z,3.00
2022-12-28T15:08:24.309Z,2.27
2022-12-28T15:10:56.950Z,1.67
2022-12-28T15:13:27.695Z,1.80
2022-12-28T15:16:04.122Z,2.10
2022-12-28T15:18:34.107Z,1.93
2022-12-28T15:21:07.057Z,1.37
2022-12-28T15:23:36.890Z,2.50
2022-12-28T15:26:12.497Z,2.07
2022-12-28T15:28:42.594Z,1.90
2022-12-28T15:31:19.868Z,2.10
2022-12-28T15:33:50.242Z,2.08
2022-12-28T15:36:21.966Z,1.70
2022-12-28T15:38:51.711Z,1.75
2022-12-28T15:41:39.128Z,1.90
2022-12-28T15:44:11.351Z,1.82
2022-12-28T15:46:41.181Z,2.30
2022-12-28T15:49:14.483Z,1.77
2022-12-28T15:51:46.003Z,1.90
2022-12-28T15:54:18.734Z,1.85
2022-12-28T15:56:55.661Z,2.52
2022-12-28T15:59:28.954Z,2.27
2022-12-28T16:01:59.224Z,1.77
2022-12-28T16:04:28.957Z,1.95
2022-12-28T16:06:58.846Z,2.00
2022-12-28T16:09:28.947Z,2.00
2022-12-28T16:11:58.742Z,2.07
2022-12-28T16:14:28.531Z,2.45
2022-12-28T16:16:58.384Z,1.97
2022-12-28T16:19:28.235Z,2.27
2022-12-28T16:21:58.053Z,2.27
2022-12-28T16:24:29.091Z,2.03
2022-12-28T16:27:00.603Z,1.90
2022-12-28T16:29:30.344Z,1.97
2022-12-28T16:32:01.439Z,2.07
2022-12-28T16:34:32.027Z,2.20
2022-12-28T16:37:01.859Z,2.10
2022-12-28T16:39:31.876Z,2.17
2022-12-28T16:42:01.604Z,2.23
2022-12-28T16:44:31.112Z,2.10
2022-12-28T16:47:01.264Z,2.23
2022-12-28T16:49:31.304Z,1.90
2022-12-28T16:52:01.034Z,2.20
2022-12-28T16:54:30.461Z,2.20
2022-12-28T16:57:00.287Z,2.43
2022-12-28T16:59:30.542Z,2.30
2022-12-28T17:02:01.407Z,2.37
2022-12-28T17:04:31.328Z,2.10
2022-12-28T17:07:01.087Z,2.40
2022-12-28T17:09:31.197Z,2.50
2022-12-28T17:12:01.032Z,2.67
2022-12-28T17:14:38.464Z,2.83
2022-12-28T17:17:02.828Z,2.57
2022-12-28T17:19:32.672Z,2.70
2022-12-28T17:22:02.682Z,2.53
2022-12-28T17:24:32.908Z,3.05
2022-12-28T17:27:08.158Z,3.00
2022-12-28T17:29:34.502Z,2.55
2022-12-28T17:32:05.329Z,2.80
2022-12-28T17:34:35.163Z,2.23
2022-12-28T17:37:05.458Z,2.13
2022-12-28T17:39:40.335Z,2.08
2022-12-28T17:42:09.190Z,2.50
2022-12-28T17:44:39.391Z,2.70
2022-12-28T17:47:10.009Z,2.60
2022-12-28T17:49:39.763Z,2.73
2022-12-28T17:52:11.313Z,2.63
2022-12-28T17:54:41.105Z,2.33
2022-12-28T17:57:10.865Z,2.70
2022-12-28T17:59:40.594Z,2.40
2022-12-28T18:02:13.888Z,3.44
2022-12-28T18:04:43.983Z,4.58
2022-12-28T18:07:13.575Z,3.20
2022-12-28T18:09:43.277Z,3.00
2022-12-28T18:12:14.069Z,2.00
2022-12-28T18:14:43.901Z,2.47
2022-12-28T18:17:13.727Z,2.27
2022-12-28T18:19:43.509Z,2.50
2022-12-28T18:22:15.323Z,1.75
2022-12-28T18:24:45.050Z,3.17
2022-12-28T18:27:14.770Z,2.33
2022-12-28T18:29:45.670Z,2.10
2022-12-28T18:32:15.202Z,1.87
2022-12-28T18:34:45.282Z,1.77
2022-12-28T18:37:15.384Z,1.60
2022-12-28T18:39:45.139Z,1.97
2022-12-28T18:42:18.236Z,1.86
2022-12-28T18:44:48.363Z,2.03
2022-12-28T18:47:18.301Z,2.20
2022-12-28T18:49:48.211Z,1.70
2022-12-28T18:52:18.482Z,4.78
2022-12-28T18:54:48.206Z,2.50
2022-12-28T18:57:17.922Z,1.73
2022-12-28T18:59:47.643Z,2.20
2022-12-28T19:02:19.797Z,2.00
2022-12-28T19:04:50.387Z,2.07
2022-12-28T19:07:20.694Z,2.20
2022-12-28T19:10:12.600Z,2.27
2022-12-28T19:12:40.696Z,2.07
2022-12-28T19:15:10.898Z,2.80
2022-12-28T19:17:40.816Z,2.30
2022-12-28T19:20:12.751Z,2.70
2022-12-28T19:22:44.939Z,3.17
2022-12-28T19:25:14.387Z,3.52
2022-12-28T19:27:44.405Z,3.80
2022-12-28T19:30:15.914Z,3.12
2022-12-28T19:32:45.729Z,3.43
2022-12-28T19:35:15.833Z,3.13
2022-12-28T19:37:45.586Z,3.03
2022-12-28T19:40:15.655Z,3.10
2022-12-28T19:42:45.436Z,3.03
2022-12-28T19:45:14.939Z,3.73
2022-12-28T19:47:44.418Z,3.15
2022-12-28T19:50:17.127Z,3.25
2022-12-28T19:52:46.925Z,3.33
2022-12-28T19:55:16.649Z,4.63
2022-12-28T19:57:46.401Z,6.33
2022-12-28T20:00:16.824Z,3.33
2022-12-28T20:02:46.751Z,3.23
2022-12-28T20:05:16.275Z,3.67
2022-12-28T20:07:46.051Z,3.20
2022-12-28T20:10:15.533Z,3.40
2022-12-28T20:12:45.593Z,3.33
2022-12-28T20:15:15.386Z,2.87
2022-12-28T20:17:47.270Z,3.52
2022-12-28T20:20:19.553Z,3.52
2022-12-28T20:22:48.828Z,3.10
2022-12-28T20:25:18.554Z,3.53
2022-12-28T20:27:48.582Z,3.33
2022-12-28T20:30:18.115Z,3.40
2022-12-28T20:32:48.149Z,3.40
2022-12-28T20:35:17.697Z,3.43
2022-12-28T20:37:47.735Z,3.27
2022-12-28T20:40:17.743Z,3.33
2022-12-28T20:43:05.173Z,3.13
2022-12-28T20:45:35.632Z,3.30
2022-12-28T20:48:05.591Z,3.17
2022-12-28T20:50:35.392Z,3.33
2022-12-28T20:53:05.214Z,3.50
2022-12-28T20:55:34.963Z,3.50
2022-12-28T20:58:04.988Z,3.27
2022-12-28T21:00:34.903Z,2.90
2022-12-28T21:03:04.648Z,3.10
2022-12-28T21:05:34.724Z,3.33
2022-12-28T21:08:04.663Z,2.93
2022-12-28T21:10:34.213Z,2.80
2022-12-28T21:13:03.710Z,3.00
2022-12-28T21:15:33.795Z,3.30
2022-12-28T21:18:03.973Z,3.05
2022-12-28T21:20:38.754Z,3.40
2022-12-28T21:23:05.145Z,3.23
2022-12-28T21:25:35.072Z,3.37
2022-12-28T21:28:05.172Z,2.60
2022-12-28T21:30:35.455Z,3.10
2022-12-28T21:33:05.745Z,2.93
2022-12-28T21:35:35.480Z,3.33
2022-12-28T21:38:06.288Z,3.20
2022-12-28T21:40:36.049Z,2.92
2022-12-28T21:43:05.806Z,3.00
2022-12-28T21:45:35.661Z,2.80
2022-12-28T21:48:05.960Z,3.02
2022-12-28T21:50:36.013Z,2.70
2022-12-28T21:53:05.841Z,2.93
2022-12-28T21:55:45.394Z,2.93
2022-12-28T21:58:16.501Z,3.62
2022-12-28T22:01:04.063Z,2.77
2022-12-28T22:03:51.453Z,2.73
2022-12-28T22:06:21.201Z,2.90
2022-12-28T22:09:08.767Z,2.63
2022-12-28T22:11:56.162Z,2.87
2022-12-28T22:14:25.882Z,3.23
2022-12-28T22:16:55.831Z,3.23
2022-12-28T22:19:25.786Z,2.90
2022-12-28T22:21:55.596Z,3.90
2022-12-28T22:24:25.436Z,3.77
2022-12-28T22:26:55.153Z,3.20
2022-12-28T22:29:25.458Z,4.12
2022-12-28T22:31:55.271Z,3.30
2022-12-28T22:34:25.316Z,3.30
2022-12-28T22:36:55.064Z,3.10
2022-12-28T22:39:25.290Z,2.90
2022-12-28T22:41:55.007Z,2.80
2022-12-28T22:44:25.103Z,2.75
2022-12-28T22:46:55.093Z,2.93
2022-12-28T22:49:25.145Z,2.80
2022-12-28T22:51:54.956Z,2.70
2022-12-28T22:54:24.714Z,2.57
2022-12-28T22:56:54.480Z,2.80
2022-12-28T22:59:24.283Z,2.90
2022-12-28T23:01:56.656Z,2.70
2022-12-28T23:04:26.419Z,2.77
2022-12-28T23:07:01.663Z,3.10
2022-12-28T23:09:27.984Z,3.03
2022-12-28T23:11:58.043Z,2.65
2022-12-28T23:14:45.487Z,2.60
2022-12-28T23:17:16.864Z,2.30
2022-12-28T23:20:05.022Z,2.43
2022-12-28T23:22:52.586Z,2.40
2022-12-28T23:25:42.049Z,2.47
2022-12-28T23:28:15.570Z,2.23
2022-12-28T23:30:48.486Z,2.47
2022-12-28T23:33:20.015Z,2.72
2022-12-28T23:35:49.769Z,2.27
2022-12-28T23:38:19.696Z,2.80
2022-12-28T23:40:51.068Z,2.60
2022-12-28T23:43:20.528Z,2.45
2022-12-28T23:45:50.725Z,2.30
2022-12-28T23:48:20.543Z,2.75
2022-12-28T23:50:50.266Z,2.90
2022-12-28T23:53:22.980Z,2.70
2022-12-28T23:55:52.725Z,2.60
2022-12-28T23:58:22.154Z,2.37
